Terminal Aerodrome Forecast
Issued by NWS King Salmon, AK

Current Version | Previous Version | Text Only | Print | Product List | Glossary On
Versions: 1 2 3 4 5 6 7 8 9 10 11 12 13 14 15 16 17 18 19 20 21 22 23 24 25 26 27 28
000
FTAK31 PANC 170535
TAFAKN
TAF
PAKN 170535Z 1706/1806 10013KT 6SM RA BR FEW050 OVC060=

USA.gov is the U.S. government's official web portal to all federal, state and local government web resources and services.